createdAt,value
2018-12-27T00:01:59.188Z,43.65
2018-12-27T00:04:28.508Z,42.25
2018-12-27T00:06:57.753Z,44.30
2018-12-27T00:09:27.037Z,44.40
2018-12-27T00:11:56.311Z,45.65
2018-12-27T00:14:25.548Z,44.53
2018-12-27T00:16:54.802Z,45.73
2018-12-27T00:19:24.132Z,44.93
2018-12-27T00:21:53.310Z,41.68
2018-12-27T00:24:22.558Z,43.48
2018-12-27T00:26:51.767Z,42.17
2018-12-27T00:29:20.999Z,43.63
2018-12-27T00:31:50.180Z,42.33
2018-12-27T00:34:19.470Z,40.70
2018-12-27T00:36:48.725Z,41.15
2018-12-27T00:39:18.118Z,40.20
2018-12-27T00:41:47.428Z,42.60
2018-12-27T00:44:16.761Z,41.60
2018-12-27T00:46:46.013Z,40.28
2018-12-27T00:49:15.412Z,42.60
2018-12-27T00:51:44.711Z,40.60
2018-12-27T00:54:13.969Z,41.50
2018-12-27T00:56:43.347Z,39.63
2018-12-27T00:59:12.612Z,40.00
2018-12-27T01:01:41.943Z,40.00
2018-12-27T01:04:11.486Z,44.63
2018-12-27T01:06:40.657Z,39.53
2018-12-27T01:09:09.975Z,36.03
2018-12-27T01:11:39.276Z,40.75
2018-12-27T01:14:08.598Z,37.30
2018-12-27T01:16:37.853Z,41.25
2018-12-27T01:19:07.209Z,39.18
2018-12-27T01:21:36.585Z,41.50
2018-12-27T01:24:07.267Z,42.53
2018-12-27T01:26:36.653Z,40.75
2018-12-27T01:29:06.026Z,43.63
2018-12-27T01:31:35.482Z,38.88
2018-12-27T01:34:04.701Z,38.00
2018-12-27T01:36:34.131Z,37.45
2018-12-27T01:39:04.618Z,36.77
2018-12-27T01:41:34.102Z,36.83
2018-12-27T01:44:03.506Z,39.30
2018-12-27T01:46:33.082Z,38.98
2018-12-27T01:49:02.670Z,43.52
2018-12-27T01:51:32.370Z,37.15
2018-12-27T01:54:01.980Z,39.90
2018-12-27T01:56:31.345Z,38.33
2018-12-27T01:59:00.600Z,37.45
2018-12-27T02:01:29.784Z,37.25
2018-12-27T02:03:59.065Z,39.08
2018-12-27T02:06:28.340Z,38.58
2018-12-27T02:08:57.726Z,37.45
2018-12-27T02:11:27.093Z,38.70
2018-12-27T02:13:56.349Z,36.45
2018-12-27T02:16:25.604Z,37.65
2018-12-27T02:18:54.881Z,38.33
2018-12-27T02:21:24.153Z,37.00
2018-12-27T02:23:54.981Z,36.83
2018-12-27T02:26:24.187Z,36.28
2018-12-27T02:28:53.365Z,36.28
2018-12-27T02:31:22.700Z,37.30
2018-12-27T02:33:52.060Z,35.05
2018-12-27T02:36:21.242Z,37.88
2018-12-27T02:38:53.651Z,35.60
2018-12-27T02:41:22.879Z,34.90
2018-12-27T02:43:52.135Z,39.13
2018-12-27T02:46:21.390Z,37.17
2018-12-27T02:48:50.675Z,33.60
2018-12-27T02:51:20.072Z,33.75
2018-12-27T02:53:49.481Z,34.53
2018-12-27T02:56:18.779Z,36.05
2018-12-27T02:58:48.032Z,36.70
2018-12-27T03:01:17.275Z,34.58
2018-12-27T03:03:46.644Z,34.78
2018-12-27T03:06:16.080Z,31.50
2018-12-27T03:08:45.433Z,36.77
2018-12-27T03:11:15.067Z,32.83
2018-12-27T03:13:44.534Z,33.15
2018-12-27T03:16:13.777Z,33.15
2018-12-27T03:18:43.083Z,33.13
2018-12-27T03:21:12.423Z,33.75
2018-12-27T03:23:41.609Z,31.40
2018-12-27T03:26:11.113Z,33.55
2018-12-27T03:28:40.445Z,31.68
2018-12-27T03:31:09.707Z,33.90
2018-12-27T03:33:39.307Z,33.48
2018-12-27T03:36:08.558Z,32.33
2018-12-27T03:38:38.061Z,30.32
2018-12-27T03:41:07.718Z,32.78
2018-12-27T03:43:36.979Z,34.45
2018-12-27T03:46:06.231Z,32.53
2018-12-27T03:48:35.933Z,29.23
2018-12-27T03:51:05.285Z,34.45
2018-12-27T03:53:34.596Z,34.35
2018-12-27T03:56:05.435Z,33.33
2018-12-27T03:58:34.679Z,31.85
2018-12-27T04:01:03.871Z,33.10
2018-12-27T04:03:33.165Z,30.02
2018-12-27T04:06:02.593Z,30.82
2018-12-27T04:08:36.337Z,29.80
2018-12-27T04:11:05.713Z,30.15
2018-12-27T04:13:35.037Z,31.48
2018-12-27T04:16:04.366Z,33.63
2018-12-27T04:18:33.741Z,30.45
2018-12-27T04:21:05.478Z,30.82
2018-12-27T04:23:36.060Z,32.93
2018-12-27T04:26:06.154Z,31.20
2018-12-27T04:28:35.323Z,31.60
2018-12-27T04:31:04.972Z,29.50
2018-12-27T04:33:34.256Z,28.02
2018-12-27T04:36:03.734Z,32.13
2018-12-27T04:38:32.899Z,28.95
2018-12-27T04:41:02.095Z,31.48
2018-12-27T04:43:31.648Z,29.25
2018-12-27T04:46:00.824Z,30.60
2018-12-27T04:48:30.085Z,29.10
2018-12-27T04:50:59.266Z,29.05
2018-12-27T04:53:28.440Z,29.30
2018-12-27T04:55:58.072Z,30.80
2018-12-27T04:58:27.315Z,31.60
2018-12-27T05:00:56.545Z,32.53
2018-12-27T05:03:25.770Z,31.93
2018-12-27T05:05:57.680Z,31.87
2018-12-27T05:08:26.854Z,30.62
2018-12-27T05:10:56.072Z,30.65
2018-12-27T05:13:25.401Z,28.12
2018-12-27T05:15:56.072Z,28.85
2018-12-27T05:18:25.352Z,29.80
2018-12-27T05:20:54.839Z,28.87
2018-12-27T05:23:25.386Z,30.10
2018-12-27T05:25:54.685Z,30.45
2018-12-27T05:28:24.008Z,29.70
2018-12-27T05:30:53.355Z,31.02
2018-12-27T05:33:22.867Z,30.88
2018-12-27T05:35:52.105Z,33.80
2018-12-27T05:38:23.014Z,30.70
2018-12-27T05:40:52.439Z,31.15
2018-12-27T05:43:21.611Z,29.90
2018-12-27T05:45:50.863Z,29.50
2018-12-27T05:48:22.117Z,29.57
2018-12-27T05:50:51.306Z,32.05
2018-12-27T05:53:20.610Z,28.00
2018-12-27T05:55:49.838Z,31.07
2018-12-27T05:58:20.879Z,28.98
2018-12-27T06:00:50.059Z,31.90
2018-12-27T06:03:19.329Z,27.50
2018-12-27T06:05:48.503Z,31.02
2018-12-27T06:08:17.757Z,25.92
2018-12-27T06:10:47.067Z,28.47
2018-12-27T06:13:16.285Z,26.50
2018-12-27T06:15:45.465Z,29.12
2018-12-27T06:18:14.701Z,29.10
2018-12-27T06:20:43.989Z,29.70
2018-12-27T06:23:15.625Z,29.52
2018-12-27T06:25:44.915Z,29.25
2018-12-27T06:28:14.144Z,29.07
2018-12-27T06:30:43.403Z,29.55
2018-12-27T06:33:12.670Z,28.57
2018-12-27T06:35:41.928Z,26.70
2018-12-27T06:38:11.668Z,28.57
2018-12-27T06:40:41.028Z,30.10
2018-12-27T06:43:10.457Z,26.55
2018-12-27T06:45:40.049Z,26.70
2018-12-27T06:48:09.279Z,25.37
2018-12-27T06:50:38.445Z,26.95
2018-12-27T06:53:07.611Z,25.35
2018-12-27T06:55:36.832Z,28.40
2018-12-27T06:58:06.112Z,25.17
2018-12-27T07:00:35.455Z,24.95
2018-12-27T07:03:04.758Z,27.80
2018-12-27T07:05:34.000Z,25.90
2018-12-27T07:08:03.183Z,26.73
2018-12-27T07:10:32.482Z,24.80
2018-12-27T07:13:01.726Z,27.75
2018-12-27T07:16:03.948Z,26.55
2018-12-27T07:18:33.197Z,24.35
2018-12-27T07:21:02.363Z,27.32
2018-12-27T07:23:31.770Z,26.42
2018-12-27T07:26:01.041Z,25.20
2018-12-27T07:28:30.288Z,25.37
2018-12-27T07:30:59.492Z,26.87
2018-12-27T07:33:28.838Z,24.82
2018-12-27T07:35:58.153Z,24.45
2018-12-27T07:38:27.354Z,25.90
2018-12-27T07:40:57.267Z,25.45
2018-12-27T07:43:26.757Z,24.52
2018-12-27T07:45:56.013Z,26.52
2018-12-27T07:48:25.197Z,24.57
2018-12-27T07:50:54.372Z,25.32
2018-12-27T07:53:23.592Z,27.45
2018-12-27T07:55:52.841Z,25.48
2018-12-27T07:58:22.012Z,26.55
2018-12-27T08:00:51.253Z,24.60
2018-12-27T08:03:20.493Z,25.12
2018-12-27T08:05:49.764Z,24.72
2018-12-27T08:08:19.388Z,27.02
2018-12-27T08:10:48.729Z,23.98
2018-12-27T08:13:18.369Z,26.15
2018-12-27T08:15:47.709Z,26.00
2018-12-27T08:18:16.897Z,25.37
2018-12-27T08:20:46.234Z,24.63
2018-12-27T08:23:15.724Z,25.95
2018-12-27T08:25:45.390Z,24.43
2018-12-27T08:28:14.663Z,23.30
2018-12-27T08:30:43.928Z,23.87
2018-12-27T08:33:13.174Z,23.52
2018-12-27T08:35:42.439Z,28.12
2018-12-27T08:38:11.797Z,24.45
2018-12-27T08:40:41.029Z,26.42
2018-12-27T08:43:10.435Z,23.90
2018-12-27T08:45:39.726Z,24.30
2018-12-27T08:48:11.251Z,25.27
2018-12-27T08:50:40.859Z,24.45
2018-12-27T08:53:10.151Z,23.57
2018-12-27T08:55:39.351Z,22.10
2018-12-27T08:58:11.439Z,22.80
2018-12-27T09:00:40.753Z,26.68
2018-12-27T09:03:10.025Z,25.45
2018-12-27T09:05:39.324Z,25.95
2018-12-27T09:08:08.548Z,25.82
2018-12-27T09:10:39.217Z,21.33
2018-12-27T09:13:08.446Z,20.12
2018-12-27T09:15:37.798Z,21.70
2018-12-27T09:18:07.060Z,22.58
2018-12-27T09:20:36.387Z,20.45
2018-12-27T09:23:05.700Z,24.35
2018-12-27T09:25:35.054Z,24.37
2018-12-27T09:28:04.410Z,28.47
2018-12-27T09:30:33.675Z,27.50
2018-12-27T09:33:02.871Z,28.75
2018-12-27T09:35:32.339Z,28.77
2018-12-27T09:38:01.673Z,28.32
2018-12-27T09:40:30.970Z,29.42
2018-12-27T09:43:00.297Z,26.15
2018-12-27T09:45:29.552Z,26.70
2018-12-27T09:47:58.785Z,26.65
2018-12-27T09:50:28.101Z,27.22
2018-12-27T09:52:57.295Z,25.43
2018-12-27T09:55:26.611Z,26.50
2018-12-27T09:57:55.805Z,24.10
2018-12-27T10:00:25.081Z,25.70
2018-12-27T10:02:54.242Z,26.90
2018-12-27T10:05:23.465Z,24.82
2018-12-27T10:07:57.462Z,24.50
2018-12-27T10:10:23.547Z,26.93
2018-12-27T10:12:52.835Z,30.62
2018-12-27T10:15:22.028Z,26.45
2018-12-27T10:17:51.269Z,26.10
2018-12-27T10:20:20.469Z,26.20
2018-12-27T10:22:50.165Z,26.70
2018-12-27T10:25:19.612Z,24.18
2018-12-27T10:27:49.003Z,25.40
2018-12-27T10:30:18.273Z,23.90
2018-12-27T10:32:47.491Z,25.02
2018-12-27T10:35:16.834Z,24.12
2018-12-27T10:37:46.165Z,22.42
2018-12-27T10:40:15.335Z,21.23
2018-12-27T10:42:44.626Z,21.68
2018-12-27T10:45:13.933Z,24.52
2018-12-27T10:47:43.181Z,21.12
2018-12-27T10:50:12.609Z,22.40
2018-12-27T10:52:42.081Z,20.95
2018-12-27T10:55:11.265Z,23.80
2018-12-27T10:57:40.546Z,22.17
2018-12-27T11:00:11.514Z,19.25
2018-12-27T11:02:40.713Z,21.82
2018-12-27T11:05:09.945Z,21.55
2018-12-27T11:07:39.317Z,16.73
2018-12-27T11:10:11.367Z,10.40
2018-12-27T11:12:40.789Z,10.72
2018-12-27T11:15:10.234Z,10.15
2018-12-27T11:17:39.408Z,7.67
2018-12-27T11:20:08.618Z,9.03
2018-12-27T11:22:37.872Z,8.88
2018-12-27T11:25:07.058Z,9.25
2018-12-27T11:27:36.341Z,8.88
2018-12-27T11:30:05.924Z,8.73
2018-12-27T11:32:35.089Z,8.53
2018-12-27T11:35:04.530Z,8.45
2018-12-27T11:37:33.885Z,8.45
2018-12-27T11:40:03.338Z,7.92
2018-12-27T11:42:32.621Z,12.15
2018-12-27T11:45:01.802Z,9.65
2018-12-27T11:47:31.011Z,10.70
2018-12-27T11:50:00.269Z,9.95
2018-12-27T11:52:29.512Z,9.80
2018-12-27T11:54:58.687Z,10.32
2018-12-27T11:57:27.900Z,11.05
2018-12-27T11:59:57.186Z,10.98
2018-12-27T12:02:31.144Z,12.33
2018-12-27T12:04:57.504Z,9.73
2018-12-27T12:07:26.697Z,10.85
2018-12-27T12:09:55.960Z,11.85
2018-12-27T12:12:25.223Z,11.60
2018-12-27T12:14:54.396Z,10.23
2018-12-27T12:17:23.795Z,11.68
2018-12-27T12:19:53.013Z,11.80
2018-12-27T12:22:22.248Z,12.63
2018-12-27T12:24:51.502Z,11.03
2018-12-27T12:27:20.707Z,10.30
2018-12-27T12:29:49.970Z,10.18
2018-12-27T12:32:19.309Z,10.85
2018-12-27T12:34:48.606Z,9.53
2018-12-27T12:37:19.052Z,9.58
2018-12-27T12:39:48.300Z,10.20
2018-12-27T12:42:17.578Z,9.95
2018-12-27T12:44:46.869Z,9.30
2018-12-27T12:47:16.051Z,10.00
2018-12-27T12:49:45.251Z,9.20
2018-12-27T12:52:14.553Z,9.38
2018-12-27T12:54:43.873Z,9.08
2018-12-27T12:57:13.231Z,8.18
2018-12-27T12:59:42.597Z,7.28
2018-12-27T13:02:11.940Z,8.60
2018-12-27T13:04:41.187Z,8.40
2018-12-27T13:07:10.424Z,11.40
2018-12-27T13:09:39.698Z,14.03
2018-12-27T13:12:08.980Z,13.13
2018-12-27T13:14:38.410Z,13.88
2018-12-27T13:17:07.684Z,12.45
2018-12-27T13:19:36.955Z,12.45
2018-12-27T13:22:06.234Z,11.93
2018-12-27T13:24:35.498Z,12.93
2018-12-27T13:27:04.783Z,11.57
2018-12-27T13:29:34.057Z,12.15
2018-12-27T13:32:03.430Z,13.22
2018-12-27T13:34:32.781Z,11.80
2018-12-27T13:37:01.968Z,12.40
2018-12-27T13:39:31.192Z,13.50
2018-12-27T13:42:00.388Z,13.75
2018-12-27T13:44:29.713Z,12.60
2018-12-27T13:46:58.931Z,12.78
2018-12-27T13:49:28.224Z,10.72
2018-12-27T13:51:57.507Z,14.43
2018-12-27T13:54:26.745Z,15.65
2018-12-27T13:56:56.109Z,15.83
2018-12-27T13:59:25.385Z,13.75
2018-12-27T14:01:54.625Z,14.45
2018-12-27T14:04:23.853Z,14.23
2018-12-27T14:06:53.194Z,13.85
2018-12-27T14:09:22.580Z,14.75
2018-12-27T14:11:51.799Z,14.18
2018-12-27T14:14:21.060Z,14.95
2018-12-27T14:16:50.316Z,13.50
2018-12-27T14:19:19.544Z,12.35
2018-12-27T14:21:48.975Z,13.40
2018-12-27T14:24:18.256Z,13.43
2018-12-27T14:26:47.677Z,14.00
2018-12-27T14:29:17.146Z,14.10
2018-12-27T14:31:46.421Z,13.80
2018-12-27T14:34:15.834Z,15.03
2018-12-27T14:36:45.089Z,15.15
2018-12-27T14:39:14.379Z,13.05
2018-12-27T14:41:43.788Z,14.05
2018-12-27T14:44:14.461Z,13.15
2018-12-27T14:46:43.982Z,14.47
2018-12-27T14:49:13.194Z,16.40
2018-12-27T14:51:42.394Z,15.15
2018-12-27T14:54:11.739Z,15.40
2018-12-27T14:56:41.060Z,14.28
2018-12-27T14:59:10.525Z,14.30
2018-12-27T15:01:39.917Z,16.32
2018-12-27T15:04:09.207Z,16.42
2018-12-27T15:06:38.547Z,13.98
2018-12-27T15:09:08.566Z,14.65
2018-12-27T15:11:37.931Z,15.60
2018-12-27T15:14:07.125Z,15.10
2018-12-27T15:16:36.408Z,15.68
2018-12-27T15:19:05.608Z,15.72
2018-12-27T15:21:34.837Z,15.95
2018-12-27T15:24:04.108Z,17.25
2018-12-27T15:26:33.481Z,16.60
2018-12-27T15:29:02.725Z,17.92
2018-12-27T15:31:32.673Z,16.37
2018-12-27T15:34:01.940Z,18.10
2018-12-27T15:36:31.189Z,19.20
2018-12-27T15:39:00.393Z,20.15
2018-12-27T15:41:29.723Z,26.17
2018-12-27T15:43:58.974Z,21.70
2018-12-27T15:46:28.227Z,18.30
2018-12-27T15:48:57.544Z,17.75
2018-12-27T15:51:26.808Z,17.67
2018-12-27T15:53:56.056Z,18.55
2018-12-27T15:56:25.283Z,17.85
2018-12-27T15:58:54.512Z,17.02
2018-12-27T16:01:23.842Z,19.25
2018-12-27T16:03:53.132Z,16.40
2018-12-27T16:06:22.351Z,17.23
2018-12-27T16:08:51.815Z,17.57
2018-12-27T16:11:21.130Z,16.75
2018-12-27T16:13:50.460Z,15.35
2018-12-27T16:16:19.716Z,16.20
2018-12-27T16:18:48.905Z,19.15
2018-12-27T16:21:18.190Z,17.07
2018-12-27T16:23:47.394Z,15.98
2018-12-27T16:26:16.644Z,15.20
2018-12-27T16:28:45.904Z,18.67
2018-12-27T16:31:15.085Z,18.67
2018-12-27T16:33:44.306Z,19.00
2018-12-27T16:36:13.549Z,20.77
2018-12-27T16:38:42.723Z,24.87
2018-12-27T16:41:12.318Z,22.17
2018-12-27T16:43:41.690Z,22.95
2018-12-27T16:46:10.978Z,21.05
2018-12-27T16:48:40.458Z,27.02
2018-12-27T16:51:12.473Z,27.40
2018-12-27T16:53:41.657Z,21.50
2018-12-27T16:56:11.003Z,19.27
2018-12-27T16:58:40.271Z,21.77
2018-12-27T17:01:09.515Z,20.12
2018-12-27T17:03:38.806Z,18.45
2018-12-27T17:06:08.052Z,21.62
2018-12-27T17:08:37.369Z,21.52
2018-12-27T17:11:06.773Z,20.37
2018-12-27T17:13:35.943Z,20.92
2018-12-27T17:16:05.289Z,21.27
2018-12-27T17:18:34.593Z,19.25
2018-12-27T17:21:03.962Z,19.80
2018-12-27T17:23:33.231Z,20.30
2018-12-27T17:26:02.456Z,21.52
2018-12-27T17:29:08.436Z,19.17
2018-12-27T17:31:37.635Z,19.20
2018-12-27T17:34:07.011Z,18.82
2018-12-27T17:36:36.203Z,19.12
2018-12-27T17:39:07.852Z,20.30
2018-12-27T17:41:37.100Z,22.50
2018-12-27T17:44:06.437Z,23.40
2018-12-27T17:46:35.812Z,20.48
2018-12-27T17:49:05.377Z,21.82
2018-12-27T17:51:34.576Z,18.35
2018-12-27T17:54:03.881Z,20.08
2018-12-27T17:56:33.143Z,20.23
2018-12-27T17:59:02.322Z,20.85
2018-12-27T18:01:31.538Z,20.52
2018-12-27T18:04:00.871Z,21.37
2018-12-27T18:06:30.125Z,20.85
2018-12-27T18:08:59.414Z,18.37
2018-12-27T18:11:28.727Z,21.02
2018-12-27T18:13:58.009Z,23.22
2018-12-27T18:16:27.386Z,23.30
2018-12-27T18:18:56.798Z,21.57
2018-12-27T18:21:26.247Z,28.70
2018-12-27T18:23:55.527Z,25.43
2018-12-27T18:26:24.737Z,43.58
2018-12-27T18:28:54.082Z,34.18
2018-12-27T18:31:23.471Z,29.67
2018-12-27T18:33:52.754Z,38.50
2018-12-27T18:36:22.034Z,35.10
2018-12-27T18:38:51.315Z,30.92
2018-12-27T18:41:20.782Z,33.63
2018-12-27T18:43:50.020Z,36.60
2018-12-27T18:46:19.469Z,34.03
2018-12-27T18:48:48.843Z,34.63
2018-12-27T18:51:18.202Z,29.32
2018-12-27T18:53:47.584Z,30.45
2018-12-27T18:56:16.948Z,28.70
2018-12-27T18:58:46.442Z,28.77
2018-12-27T19:01:15.635Z,30.88
2018-12-27T19:03:44.805Z,27.60
2018-12-27T19:06:14.166Z,30.48
2018-12-27T19:08:43.685Z,28.67
2018-12-27T19:12:05.240Z,28.35
2018-12-27T19:14:34.481Z,34.03
2018-12-27T19:17:03.860Z,29.98
2018-12-27T19:19:33.506Z,25.65
2018-12-27T19:22:24.870Z,28.25
2018-12-27T19:24:54.145Z,31.20
2018-12-27T19:27:23.641Z,29.63
2018-12-27T19:29:52.932Z,27.80
2018-12-27T19:32:22.228Z,28.12
2018-12-27T19:34:51.486Z,28.85
2018-12-27T19:37:20.788Z,26.90
2018-12-27T19:39:50.133Z,28.52
2018-12-27T19:42:19.418Z,28.52
2018-12-27T19:44:48.694Z,30.85
2018-12-27T19:47:18.246Z,30.30
2018-12-27T19:49:47.676Z,30.00
2018-12-27T19:52:16.982Z,30.40
2018-12-27T19:54:46.162Z,28.02
2018-12-27T19:57:15.332Z,27.37
2018-12-27T19:59:44.623Z,27.85
2018-12-27T20:02:14.108Z,27.27
2018-12-27T20:04:43.442Z,27.02
2018-12-27T20:07:12.764Z,27.98
2018-12-27T20:09:42.041Z,28.70
2018-12-27T20:12:11.306Z,29.52
2018-12-27T20:14:42.145Z,28.62
2018-12-27T20:17:11.424Z,29.05
2018-12-27T20:19:40.606Z,29.57
2018-12-27T20:22:09.892Z,31.70
2018-12-27T20:24:39.152Z,30.43
2018-12-27T20:27:08.340Z,31.25
2018-12-27T20:29:37.829Z,29.37
2018-12-27T20:32:07.167Z,33.20
2018-12-27T20:34:36.411Z,29.75
2018-12-27T20:37:06.308Z,33.38
2018-12-27T20:39:35.929Z,43.40
2018-12-27T20:42:05.186Z,42.78
2018-12-27T20:44:34.670Z,39.48
2018-12-27T20:47:03.944Z,40.23
2018-12-27T20:49:33.137Z,36.23
2018-12-27T20:52:02.620Z,38.28
2018-12-27T20:54:31.894Z,36.30
2018-12-27T20:57:01.177Z,34.90
2018-12-27T20:59:30.499Z,38.90
2018-12-27T21:01:59.760Z,41.28
2018-12-27T21:04:29.091Z,37.28
2018-12-27T21:06:59.703Z,35.03
2018-12-27T21:09:29.186Z,31.95
2018-12-27T21:11:58.568Z,31.37
2018-12-27T21:14:28.168Z,30.65
2018-12-27T21:16:57.533Z,32.67
2018-12-27T21:19:26.825Z,35.55
2018-12-27T21:21:56.204Z,32.75
2018-12-27T21:24:25.522Z,31.85
2018-12-27T21:26:54.770Z,29.48
2018-12-27T21:29:24.078Z,34.88
2018-12-27T21:31:53.461Z,34.38
2018-12-27T21:34:22.830Z,35.00
2018-12-27T21:36:52.200Z,36.48
2018-12-27T21:39:21.512Z,32.75
2018-12-27T21:41:51.037Z,35.52
2018-12-27T21:44:20.408Z,37.48
2018-12-27T21:46:49.590Z,34.33
2018-12-27T21:49:18.831Z,36.98
2018-12-27T21:51:48.139Z,39.35
2018-12-27T21:54:17.395Z,37.80
2018-12-27T21:56:46.730Z,43.60
2018-12-27T21:59:16.170Z,41.90
2018-12-27T22:01:45.508Z,39.67
2018-12-27T22:04:14.866Z,39.10
2018-12-27T22:06:44.213Z,41.13
2018-12-27T22:09:13.483Z,39.50
2018-12-27T22:11:42.755Z,39.98
2018-12-27T22:14:12.076Z,40.83
2018-12-27T22:16:41.260Z,40.60
2018-12-27T22:19:10.525Z,39.10
2018-12-27T22:21:39.805Z,38.67
2018-12-27T22:24:09.016Z,40.08
2018-12-27T22:26:38.289Z,36.23
2018-12-27T22:29:07.518Z,40.92
2018-12-27T22:31:36.699Z,42.17
2018-12-27T22:34:06.065Z,38.98
2018-12-27T22:36:35.530Z,39.75
2018-12-27T22:39:07.404Z,38.80
2018-12-27T22:41:36.764Z,42.80
2018-12-27T22:44:06.208Z,41.80
2018-12-27T22:46:35.467Z,38.35
2018-12-27T22:49:04.712Z,36.10
2018-12-27T22:51:33.923Z,40.67
2018-12-27T22:54:03.098Z,41.08
2018-12-27T22:56:32.273Z,42.17
2018-12-27T22:59:01.546Z,43.55
2018-12-27T23:01:30.717Z,42.15
2018-12-27T23:03:59.890Z,40.83
2018-12-27T23:06:29.212Z,42.78
2018-12-27T23:08:58.483Z,41.20
2018-12-27T23:11:27.935Z,43.25
2018-12-27T23:13:57.291Z,42.83
2018-12-27T23:16:26.471Z,44.65
2018-12-27T23:18:55.650Z,39.65
2018-12-27T23:21:24.866Z,38.83
2018-12-27T23:23:54.114Z,40.75
2018-12-27T23:26:23.537Z,41.70
2018-12-27T23:28:52.722Z,38.65
2018-12-27T23:31:21.909Z,40.90
2018-12-27T23:33:51.253Z,42.55
2018-12-27T23:36:20.619Z,40.78
2018-12-27T23:38:50.494Z,36.05
2018-12-27T23:41:20.273Z,37.65
2018-12-27T23:43:49.692Z,38.98
2018-12-27T23:46:18.948Z,40.58
2018-12-27T23:48:48.279Z,38.02
2018-12-27T23:51:17.627Z,38.20
2018-12-27T23:53:46.898Z,38.42
2018-12-27T23:56:16.519Z,39.15
2018-12-27T23:58:45.787Z,38.53
